sensor_id;sensor_type;location;lat;lon;timestamp;pressure;altitude;pressure_sealevel;temperature;humidity
22775;BME280;11554;51.106;3.684;2022-08-21T00:00:00;101737.51999999999;;;14.18;95.04
22775;BME280;11554;51.106;3.684;2022-08-21T00:05:00;101741.72;;;14.18;96.31
22775;BME280;11554;51.106;3.684;2022-08-21T00:10:00;101736.91;;;14.11;95.56
22775;BME280;11554;51.106;3.684;2022-08-21T00:15:00;101726.17;;;14.03;95.47
22775;BME280;11554;51.106;3.684;2022-08-21T00:20:00;101719.95;;;13.93;94.41
22775;BME280;11554;51.106;3.684;2022-08-21T00:25:00;101715.36;;;13.92;95.82
22775;BME280;11554;51.106;3.684;2022-08-21T00:30:00;101712.73999999999;;;13.77;94.11
22775;BME280;11554;51.106;3.684;2022-08-21T00:35:00;101711.33;;;13.70;93.5
22775;BME280;11554;51.106;3.684;2022-08-21T00:40:00;101704.75;;;13.72;96.89
22775;BME280;11554;51.106;3.684;2022-08-21T00:45:00;101705.06;;;13.70;96.16
22775;BME280;11554;51.106;3.684;2022-08-21T00:50:00;101702.63;;;13.64;95.63
22775;BME280;11554;51.106;3.684;2022-08-21T00:55:00;101704.25;;;13.59;96.78
22775;BME280;11554;51.106;3.684;2022-08-21T01:00:01;101703.79000000001;;;13.63;99.35
22775;BME280;11554;51.106;3.684;2022-08-21T01:05:00;101707.01000000001;;;13.63;99.86
22775;BME280;11554;51.106;3.684;2022-08-21T01:10:00;101706.33;;;13.65;100.0
22775;BME280;11554;51.106;3.684;2022-08-21T01:15:00;101709.23;;;13.60;100.0
22775;BME280;11554;51.106;3.684;2022-08-21T01:20:00;101711.45;;;13.58;100.0
22775;BME280;11554;51.106;3.684;2022-08-21T01:25:00;101717.39;;;13.52;100.0
22775;BME280;11554;51.106;3.684;2022-08-21T01:30:03;101712.05;;;13.54;100.0
22775;BME280;11554;51.106;3.684;2022-08-21T01:35:00;101711.8;;;13.53;100.0
22775;BME280;11554;51.106;3.684;2022-08-21T01:40:00;101708.04000000001;;;13.48;100.0
22775;BME280;11554;51.106;3.684;2022-08-21T01:45:00;101707.08;;;13.42;100.0
22775;BME280;11554;51.106;3.684;2022-08-21T01:50:00;101703.3;;;13.43;100.0
22775;BME280;11554;51.106;3.684;2022-08-21T01:55:00;101706.03;;;13.39;100.0
22775;BME280;11554;51.106;3.684;2022-08-21T02:00:00;101709.31;;;13.35;100.0
22775;BME280;11554;51.106;3.684;2022-08-21T02:05:00;101708.26;;;13.30;100.0
22775;BME280;11554;51.106;3.684;2022-08-21T02:10:00;101705.98;;;13.26;100.0
22775;BME280;11554;51.106;3.684;2022-08-21T02:15:00;101701.93000000001;;;13.31;100.0
22775;BME280;11554;51.106;3.684;2022-08-21T02:20:00;101701.68;;;13.30;100.0
22775;BME280;11554;51.106;3.684;2022-08-21T02:25:00;101697.63;;;13.28;100.0
22775;BME280;11554;51.106;3.684;2022-08-21T02:30:00;101703.41;;;13.31;100.0
22775;BME280;11554;51.106;3.684;2022-08-21T02:35:00;101701.54;;;13.34;100.0
22775;BME280;11554;51.106;3.684;2022-08-21T02:40:00;101698.99;;;13.34;100.0
22775;BME280;11554;51.106;3.684;2022-08-21T02:45:00;101703.42000000001;;;13.33;100.0
22775;BME280;11554;51.106;3.684;2022-08-21T02:50:00;101695.72;;;13.33;100.0
22775;BME280;11554;51.106;3.684;2022-08-21T02:55:00;101696.34;;;13.32;100.0
22775;BME280;11554;51.106;3.684;2022-08-21T03:00:00;101695.08;;;13.31;100.0
22775;BME280;11554;51.106;3.684;2022-08-21T03:05:00;101694.48;;;13.28;100.0
22775;BME280;11554;51.106;3.684;2022-08-21T03:10:00;101688.28;;;13.24;100.0
22775;BME280;11554;51.106;3.684;2022-08-21T03:15:00;101686.87999999999;;;13.23;100.0
22775;BME280;11554;51.106;3.684;2022-08-21T03:20:00;101680.8;;;13.21;100.0
22775;BME280;11554;51.106;3.684;2022-08-21T03:25:00;101670.32;;;13.19;100.0
22775;BME280;11554;51.106;3.684;2022-08-21T03:30:00;101665.81;;;13.17;100.0
22775;BME280;11554;51.106;3.684;2022-08-21T03:35:00;101658.28;;;13.16;100.0
22775;BME280;11554;51.106;3.684;2022-08-21T03:40:00;101652.62;;;13.17;100.0
22775;BME280;11554;51.106;3.684;2022-08-21T03:45:00;101655.94;;;13.13;100.0
22775;BME280;11554;51.106;3.684;2022-08-21T03:50:00;101660.13;;;13.11;100.0
22775;BME280;11554;51.106;3.684;2022-08-21T03:55:00;101659.16;;;13.09;100.0
22775;BME280;11554;51.106;3.684;2022-08-21T04:00:00;101661.03;;;13.09;100.0
22775;BME280;11554;51.106;3.684;2022-08-21T04:05:00;101661.27;;;13.08;100.0
22775;BME280;11554;51.106;3.684;2022-08-21T04:10:00;101671.0;;;13.09;100.0
22775;BME280;11554;51.106;3.684;2022-08-21T04:15:00;101679.35;;;13.03;100.0
22775;BME280;11554;51.106;3.684;2022-08-21T04:20:00;101684.42;;;13.04;100.0
22775;BME280;11554;51.106;3.684;2022-08-21T04:25:00;101689.79000000001;;;13.04;100.0
22775;BME280;11554;51.106;3.684;2022-08-21T04:30:00;101691.6;;;13.04;100.0
22775;BME280;11554;51.106;3.684;2022-08-21T04:35:00;101689.64;;;13.03;100.0
22775;BME280;11554;51.106;3.684;2022-08-21T04:40:00;101692.26999999999;;;13.03;100.0
22775;BME280;11554;51.106;3.684;2022-08-21T04:45:00;101687.67;;;13.04;100.0
22775;BME280;11554;51.106;3.684;2022-08-21T04:50:00;101688.4;;;13.06;100.0
22775;BME280;11554;51.106;3.684;2022-08-21T04:55:00;101688.89;;;13.07;100.0
22775;BME280;11554;51.106;3.684;2022-08-21T05:00:00;101699.3;;;13.09;100.0
22775;BME280;11554;51.106;3.684;2022-08-21T05:05:00;101704.0;;;13.12;100.0
22775;BME280;11554;51.106;3.684;2022-08-21T05:10:00;101701.17;;;13.35;100.0
22775;BME280;11554;51.106;3.684;2022-08-21T05:15:00;101707.23000000001;;;13.50;100.0
22775;BME280;11554;51.106;3.684;2022-08-21T05:20:00;101706.81;;;13.67;100.0
22775;BME280;11554;51.106;3.684;2022-08-21T05:25:00;101710.27;;;13.80;100.0
22775;BME280;11554;51.106;3.684;2022-08-21T05:30:00;101704.02;;;14.10;100.0
22775;BME280;11554;51.106;3.684;2022-08-21T05:35:00;101705.68;;;14.65;100.0
22775;BME280;11554;51.106;3.684;2022-08-21T05:40:00;101711.15999999999;;;15.60;100.0
22775;BME280;11554;51.106;3.684;2022-08-21T05:45:00;101712.67;;;16.29;100.0
22775;BME280;11554;51.106;3.684;2022-08-21T05:50:00;101715.9;;;17.06;100.0
22775;BME280;11554;51.106;3.684;2022-08-21T05:55:00;101714.45;;;17.87;100.0
22775;BME280;11554;51.106;3.684;2022-08-21T06:00:00;101712.64;;;18.66;100.0
22775;BME280;11554;51.106;3.684;2022-08-21T06:05:00;101716.94;;;19.28;93.72
22775;BME280;11554;51.106;3.684;2022-08-21T06:10:00;101717.55;;;20.11;94.1
22775;BME280;11554;51.106;3.684;2022-08-21T06:15:00;101710.39;;;21.00;89.69
22775;BME280;11554;51.106;3.684;2022-08-21T06:20:00;101713.31999999999;;;21.54;86.71
22775;BME280;11554;51.106;3.684;2022-08-21T06:25:00;101708.12;;;21.85;84.5
22775;BME280;11554;51.106;3.684;2022-08-21T06:30:00;101703.93000000001;;;22.47;81.56
22775;BME280;11554;51.106;3.684;2022-08-21T06:35:00;101706.76;;;23.22;79.11
22775;BME280;11554;51.106;3.684;2022-08-21T06:40:00;101704.54999999999;;;23.70;76.38
22775;BME280;11554;51.106;3.684;2022-08-21T06:45:00;101709.74;;;24.21;72.31
22775;BME280;11554;51.106;3.684;2022-08-21T06:50:00;101707.87;;;24.64;70.97
22775;BME280;11554;51.106;3.684;2022-08-21T06:55:00;101715.17;;;25.22;71.62
22775;BME280;11554;51.106;3.684;2022-08-21T07:00:00;101707.25;;;25.21;70.24
22775;BME280;11554;51.106;3.684;2022-08-21T07:05:00;101707.37000000001;;;26.11;69.11
22775;BME280;11554;51.106;3.684;2022-08-21T07:20:00;101714.72;;;25.77;67.15
22775;BME280;11554;51.106;3.684;2022-08-21T07:25:00;101711.31;;;25.49;67.43
22775;BME280;11554;51.106;3.684;2022-08-21T07:30:00;101712.53;;;24.84;68.39
22775;BME280;11554;51.106;3.684;2022-08-21T07:35:00;101716.57;;;24.23;69.8
22775;BME280;11554;51.106;3.684;2022-08-21T07:40:00;101716.37;;;24.22;71.05
22775;BME280;11554;51.106;3.684;2022-08-21T07:45:00;101716.63;;;24.05;71.17
22775;BME280;11554;51.106;3.684;2022-08-21T07:50:00;101715.88;;;24.49;70.52
22775;BME280;11554;51.106;3.684;2022-08-21T07:55:00;101721.15;;;24.63;70.89
22775;BME280;11554;51.106;3.684;2022-08-21T08:00:00;101716.74;;;24.90;69.78
22775;BME280;11554;51.106;3.684;2022-08-21T08:05:00;101716.28;;;25.08;69.69
22775;BME280;11554;51.106;3.684;2022-08-21T08:10:00;101717.04999999999;;;24.84;69.69
22775;BME280;11554;51.106;3.684;2022-08-21T08:15:00;101718.98999999999;;;24.87;70.61
22775;BME280;11554;51.106;3.684;2022-08-21T08:20:00;101714.73;;;25.10;69.09
22775;BME280;11554;51.106;3.684;2022-08-21T08:25:00;101711.06;;;24.96;69.83
22775;BME280;11554;51.106;3.684;2022-08-21T08:30:00;101708.81000000001;;;25.39;68.26
22775;BME280;11554;51.106;3.684;2022-08-21T08:35:00;101710.99;;;25.41;68.9
22775;BME280;11554;51.106;3.684;2022-08-21T08:40:00;101714.79000000001;;;25.88;67.18
22775;BME280;11554;51.106;3.684;2022-08-21T08:45:01;101714.09;;;26.04;66.95
22775;BME280;11554;51.106;3.684;2022-08-21T08:50:02;101706.37000000001;;;26.42;66.71
22775;BME280;11554;51.106;3.684;2022-08-21T08:55:02;101693.97;;;27.39;64.59
22775;BME280;11554;51.106;3.684;2022-08-21T09:00:00;101687.17;;;26.93;62.81
22775;BME280;11554;51.106;3.684;2022-08-21T09:05:00;101688.0;;;25.87;65.47
22775;BME280;11554;51.106;3.684;2022-08-21T09:10:04;101692.3;;;25.65;65.98
22775;BME280;11554;51.106;3.684;2022-08-21T09:15:03;101688.79;;;26.45;65.51
22775;BME280;11554;51.106;3.684;2022-08-21T09:20:03;101694.84;;;26.04;63.75
22775;BME280;11554;51.106;3.684;2022-08-21T09:25:02;101692.4;;;26.01;65.38
22775;BME280;11554;51.106;3.684;2022-08-21T09:30:00;101684.22;;;26.23;65.16
22775;BME280;11554;51.106;3.684;2022-08-21T09:35:01;101683.92;;;25.73;65.14
22775;BME280;11554;51.106;3.684;2022-08-21T09:40:01;101683.96;;;25.50;65.02
22775;BME280;11554;51.106;3.684;2022-08-21T09:45:05;101680.0;;;24.61;66.09
22775;BME280;11554;51.106;3.684;2022-08-21T09:50:07;101678.93000000001;;;25.69;64.52
22775;BME280;11554;51.106;3.684;2022-08-21T09:55:00;101670.70999999999;;;26.92;63.91
22775;BME280;11554;51.106;3.684;2022-08-21T10:00:07;101664.42;;;27.07;61.87
22775;BME280;11554;51.106;3.684;2022-08-21T10:05:01;101658.06;;;26.78;61.72
22775;BME280;11554;51.106;3.684;2022-08-21T10:10:01;101654.5;;;26.82;61.3
22775;BME280;11554;51.106;3.684;2022-08-21T10:15:02;101659.48;;;27.50;61.44
22775;BME280;11554;51.106;3.684;2022-08-21T10:20:03;101658.76;;;27.61;59.78
22775;BME280;11554;51.106;3.684;2022-08-21T10:25:02;101655.87000000001;;;26.95;59.0
22775;BME280;11554;51.106;3.684;2022-08-21T10:30:04;101653.45999999999;;;27.03;59.0
22775;BME280;11554;51.106;3.684;2022-08-21T10:35:02;101650.79;;;26.63;59.01
22775;BME280;11554;51.106;3.684;2022-08-21T10:40:02;101657.28;;;26.87;59.32
22775;BME280;11554;51.106;3.684;2022-08-21T10:45:05;101653.77;;;27.43;58.24
22775;BME280;11554;51.106;3.684;2022-08-21T10:50:02;101652.22;;;27.54;58.52
22775;BME280;11554;51.106;3.684;2022-08-21T10:55:02;101641.09999999999;;;28.86;56.19
22775;BME280;11554;51.106;3.684;2022-08-21T11:00:03;101639.48000000001;;;29.80;54.5
22775;BME280;11554;51.106;3.684;2022-08-21T11:05:01;101642.03;;;29.25;53.92
22775;BME280;11554;51.106;3.684;2022-08-21T11:10:01;101642.97;;;28.55;54.55
22775;BME280;11554;51.106;3.684;2022-08-21T11:15:01;101641.85;;;28.16;55.47
22775;BME280;11554;51.106;3.684;2022-08-21T11:20:03;101640.66;;;28.45;55.04
22775;BME280;11554;51.106;3.684;2022-08-21T11:25:00;101641.3;;;28.31;55.09
22775;BME280;11554;51.106;3.684;2022-08-21T11:30:00;101648.65999999999;;;28.06;55.98
22775;BME280;11554;51.106;3.684;2022-08-21T11:35:01;101646.06;;;28.46;56.68
22775;BME280;11554;51.106;3.684;2022-08-21T11:40:03;101644.3;;;28.92;55.15
22775;BME280;11554;51.106;3.684;2022-08-21T11:45:03;101650.05;;;28.56;53.18
22775;BME280;11554;51.106;3.684;2022-08-21T11:50:03;101660.78;;;27.60;55.07
22775;BME280;11554;51.106;3.684;2022-08-21T11:55:01;101666.95999999999;;;27.48;55.49
22775;BME280;11554;51.106;3.684;2022-08-21T12:00:02;101665.53;;;27.56;57.58
22775;BME280;11554;51.106;3.684;2022-08-21T12:05:00;101666.02;;;27.29;57.77
22775;BME280;11554;51.106;3.684;2022-08-21T12:10:01;101658.84;;;28.74;55.42
22775;BME280;11554;51.106;3.684;2022-08-21T12:15:05;101653.08;;;28.76;53.23
22775;BME280;11554;51.106;3.684;2022-08-21T12:20:01;101657.95000000001;;;28.36;54.09
22775;BME280;11554;51.106;3.684;2022-08-21T12:25:03;101663.17;;;27.97;55.58
22775;BME280;11554;51.106;3.684;2022-08-21T12:30:01;101661.63;;;27.98;54.58
22775;BME280;11554;51.106;3.684;2022-08-21T12:35:02;101662.55;;;27.63;56.15
22775;BME280;11554;51.106;3.684;2022-08-21T12:40:00;101649.22;;;28.62;54.79
22775;BME280;11554;51.106;3.684;2022-08-21T12:45:00;101653.06;;;29.99;52.67
22775;BME280;11554;51.106;3.684;2022-08-21T12:50:01;101646.73;;;29.13;51.47
22775;BME280;11554;51.106;3.684;2022-08-21T12:55:00;101648.38;;;28.54;52.85
22775;BME280;11554;51.106;3.684;2022-08-21T13:00:01;101654.08;;;28.64;52.89
22775;BME280;11554;51.106;3.684;2022-08-21T13:05:02;101639.70000000001;;;28.35;52.62
22775;BME280;11554;51.106;3.684;2022-08-21T13:10:01;101639.76;;;27.98;54.18
22775;BME280;11554;51.106;3.684;2022-08-21T13:15:02;101636.65999999999;;;28.78;53.42
22775;BME280;11554;51.106;3.684;2022-08-21T13:20:02;101634.44;;;28.97;53.47
22775;BME280;11554;51.106;3.684;2022-08-21T13:25:00;101634.91;;;28.61;53.11
22775;BME280;11554;51.106;3.684;2022-08-21T13:30:01;101626.61;;;28.58;54.85
22775;BME280;11554;51.106;3.684;2022-08-21T13:35:07;101632.75;;;29.76;51.71
22775;BME280;11554;51.106;3.684;2022-08-21T13:40:00;101622.22;;;30.35;51.97
22775;BME280;11554;51.106;3.684;2022-08-21T13:45:00;101625.28;;;29.74;51.32
22775;BME280;11554;51.106;3.684;2022-08-21T13:50:00;101627.95;;;28.90;52.17
22775;BME280;11554;51.106;3.684;2022-08-21T13:55:06;101627.37;;;28.15;53.92
22775;BME280;11554;51.106;3.684;2022-08-21T14:05:01;101626.68;;;27.83;55.54
22775;BME280;11554;51.106;3.684;2022-08-21T14:10:00;101627.65000000001;;;27.31;55.12
22775;BME280;11554;51.106;3.684;2022-08-21T14:15:01;101627.44;;;27.21;56.18
22775;BME280;11554;51.106;3.684;2022-08-21T14:20:00;101621.64;;;27.30;57.67
22775;BME280;11554;51.106;3.684;2022-08-21T14:25:00;101613.98000000001;;;27.20;57.17
22775;BME280;11554;51.106;3.684;2022-08-21T14:30:03;101617.38;;;27.21;57.33
22775;BME280;11554;51.106;3.684;2022-08-21T14:35:00;101614.79000000001;;;27.02;57.28
22775;BME280;11554;51.106;3.684;2022-08-21T14:40:00;101612.98000000001;;;26.78;57.48
22775;BME280;11554;51.106;3.684;2022-08-21T14:45:00;101609.81;;;26.74;57.71
22775;BME280;11554;51.106;3.684;2022-08-21T14:50:00;101609.47;;;26.51;57.21
22775;BME280;11554;51.106;3.684;2022-08-21T14:55:00;101606.70999999999;;;26.36;58.57
22775;BME280;11554;51.106;3.684;2022-08-21T15:00:00;101615.95;;;26.30;58.16
22775;BME280;11554;51.106;3.684;2022-08-21T15:05:00;101608.0;;;26.18;58.51
22775;BME280;11554;51.106;3.684;2022-08-21T15:10:00;101615.69;;;26.27;58.18
22775;BME280;11554;51.106;3.684;2022-08-21T15:15:00;101619.59000000001;;;26.23;59.02
22775;BME280;11554;51.106;3.684;2022-08-21T15:20:00;101617.07;;;26.50;58.7
22775;BME280;11554;51.106;3.684;2022-08-21T15:25:00;101616.61;;;26.95;58.5
22775;BME280;11554;51.106;3.684;2022-08-21T15:30:00;101616.13;;;27.11;56.99
22775;BME280;11554;51.106;3.684;2022-08-21T15:35:00;101615.06000000001;;;27.46;55.46
22775;BME280;11554;51.106;3.684;2022-08-21T15:40:00;101616.81999999999;;;27.38;55.4
22775;BME280;11554;51.106;3.684;2022-08-21T15:45:00;101618.66;;;27.07;56.67
22775;BME280;11554;51.106;3.684;2022-08-21T15:50:00;101609.83;;;26.51;58.22
22775;BME280;11554;51.106;3.684;2022-08-21T15:55:00;101614.87;;;26.91;57.5
22775;BME280;11554;51.106;3.684;2022-08-21T16:00:00;101609.39;;;26.74;58.39
22775;BME280;11554;51.106;3.684;2022-08-21T16:05:00;101608.15;;;26.76;58.8
22775;BME280;11554;51.106;3.684;2022-08-21T16:10:00;101599.54000000001;;;26.47;57.9
22775;BME280;11554;51.106;3.684;2022-08-21T16:15:00;101592.36;;;26.31;58.69
22775;BME280;11554;51.106;3.684;2022-08-21T16:20:00;101599.45999999999;;;26.54;59.1
22775;BME280;11554;51.106;3.684;2022-08-21T16:25:00;101596.45000000001;;;26.47;58.08
22775;BME280;11554;51.106;3.684;2022-08-21T16:30:00;101594.62;;;26.16;58.1
22775;BME280;11554;51.106;3.684;2022-08-21T16:35:00;101595.56999999999;;;25.85;59.3
22775;BME280;11554;51.106;3.684;2022-08-21T16:40:00;101594.61;;;25.41;59.14
22775;BME280;11554;51.106;3.684;2022-08-21T16:45:00;101595.01000000001;;;25.35;60.02
22775;BME280;11554;51.106;3.684;2022-08-21T16:50:00;101594.45;;;24.69;62.25
22775;BME280;11554;51.106;3.684;2022-08-21T16:55:00;101595.83;;;24.21;63.71
22775;BME280;11554;51.106;3.684;2022-08-21T17:00:00;101597.89;;;23.60;65.29
22775;BME280;11554;51.106;3.684;2022-08-21T17:05:00;101605.05;;;23.30;66.55
22775;BME280;11554;51.106;3.684;2022-08-21T17:10:00;101596.47;;;22.93;67.72
22775;BME280;11554;51.106;3.684;2022-08-21T17:15:01;101596.78;;;23.02;67.98
22775;BME280;11554;51.106;3.684;2022-08-21T17:20:00;101596.19;;;22.86;68.32
22775;BME280;11554;51.106;3.684;2022-08-21T17:25:00;101594.1;;;22.72;68.58
22775;BME280;11554;51.106;3.684;2022-08-21T17:30:00;101596.5;;;22.47;69.71
22775;BME280;11554;51.106;3.684;2022-08-21T17:35:00;101594.06;;;22.20;70.85
22775;BME280;11554;51.106;3.684;2022-08-21T17:40:00;101593.05;;;22.11;71.43
22775;BME280;11554;51.106;3.684;2022-08-21T17:45:00;101597.61;;;22.02;71.83
22775;BME280;11554;51.106;3.684;2022-08-21T17:50:00;101594.7;;;21.92;72.35
22775;BME280;11554;51.106;3.684;2022-08-21T17:55:00;101595.94;;;21.71;73.14
22775;BME280;11554;51.106;3.684;2022-08-21T18:00:00;101585.1;;;21.48;74.15
22775;BME280;11554;51.106;3.684;2022-08-21T18:05:00;101587.11;;;21.29;74.77
22775;BME280;11554;51.106;3.684;2022-08-21T18:10:00;101589.12;;;21.14;75.14
22775;BME280;11554;51.106;3.684;2022-08-21T18:15:00;101588.64;;;21.03;75.52
22775;BME280;11554;51.106;3.684;2022-08-21T18:20:00;101589.51;;;20.92;76.12
22775;BME280;11554;51.106;3.684;2022-08-21T18:25:00;101590.76;;;20.81;76.28
22775;BME280;11554;51.106;3.684;2022-08-21T18:30:00;101589.39;;;20.75;76.7
22775;BME280;11554;51.106;3.684;2022-08-21T18:35:00;101588.37;;;20.53;77.78
22775;BME280;11554;51.106;3.684;2022-08-21T18:40:00;101591.68;;;20.42;78.26
22775;BME280;11554;51.106;3.684;2022-08-21T18:45:00;101596.14;;;20.35;78.98
22775;BME280;11554;51.106;3.684;2022-08-21T18:50:00;101598.40000000001;;;20.28;79.18
22775;BME280;11554;51.106;3.684;2022-08-21T18:55:00;101596.37;;;20.19;78.87
22775;BME280;11554;51.106;3.684;2022-08-21T19:00:00;101599.11;;;20.14;79.49
22775;BME280;11554;51.106;3.684;2022-08-21T19:05:00;101605.03;;;20.04;79.56
22775;BME280;11554;51.106;3.684;2022-08-21T19:10:00;101605.98;;;19.93;81.07
22775;BME280;11554;51.106;3.684;2022-08-21T19:15:00;101609.97;;;19.83;81.48
22775;BME280;11554;51.106;3.684;2022-08-21T19:20:03;101616.35;;;19.78;81.73
22775;BME280;11554;51.106;3.684;2022-08-21T19:25:00;101611.98000000001;;;19.70;81.67
22775;BME280;11554;51.106;3.684;2022-08-21T19:30:00;101612.81;;;19.56;83.45
22775;BME280;11554;51.106;3.684;2022-08-21T19:35:00;101612.22;;;19.43;84.35
22775;BME280;11554;51.106;3.684;2022-08-21T19:40:00;101611.56;;;19.34;84.44
22775;BME280;11554;51.106;3.684;2022-08-21T19:45:00;101618.68;;;19.32;84.53
22775;BME280;11554;51.106;3.684;2022-08-21T19:50:01;101625.28;;;19.28;83.52
22775;BME280;11554;51.106;3.684;2022-08-21T19:55:00;101628.48;;;19.26;84.37
22775;BME280;11554;51.106;3.684;2022-08-21T20:00:00;101627.8;;;19.21;85.16
22775;BME280;11554;51.106;3.684;2022-08-21T20:05:00;101622.75;;;19.15;84.8
22775;BME280;11554;51.106;3.684;2022-08-21T20:10:00;101625.39;;;19.12;84.8
22775;BME280;11554;51.106;3.684;2022-08-21T20:15:00;101622.02;;;19.11;85.75
22775;BME280;11554;51.106;3.684;2022-08-21T20:20:00;101619.7;;;19.07;84.6
22775;BME280;11554;51.106;3.684;2022-08-21T20:25:00;101620.2;;;19.05;86.14
22775;BME280;11554;51.106;3.684;2022-08-21T20:30:00;101614.4;;;19.00;86.39
22775;BME280;11554;51.106;3.684;2022-08-21T20:35:00;101611.1;;;18.94;86.93
22775;BME280;11554;51.106;3.684;2022-08-21T20:40:00;101610.35;;;18.88;87.17
22775;BME280;11554;51.106;3.684;2022-08-21T20:45:00;101612.69;;;18.81;86.84
22775;BME280;11554;51.106;3.684;2022-08-21T20:50:01;101608.56;;;18.75;86.43
22775;BME280;11554;51.106;3.684;2022-08-21T20:55:02;101608.97;;;18.70;87.68
22775;BME280;11554;51.106;3.684;2022-08-21T21:00:00;101609.45;;;18.67;87.43
22775;BME280;11554;51.106;3.684;2022-08-21T21:05:01;101611.13;;;18.61;87.92
22775;BME280;11554;51.106;3.684;2022-08-21T21:10:00;101610.74;;;18.53;86.29
22775;BME280;11554;51.106;3.684;2022-08-21T21:15:03;101615.37;;;18.51;86.99
22775;BME280;11554;51.106;3.684;2022-08-21T21:20:02;101616.42;;;18.46;87.48
22775;BME280;11554;51.106;3.684;2022-08-21T21:25:02;101615.67;;;18.42;88.93
22775;BME280;11554;51.106;3.684;2022-08-21T21:30:02;101612.87;;;18.38;89.33
22775;BME280;11554;51.106;3.684;2022-08-21T21:35:02;101616.12;;;18.34;90.17
22775;BME280;11554;51.106;3.684;2022-08-21T21:40:03;101616.36;;;18.31;90.58
22775;BME280;11554;51.106;3.684;2022-08-21T21:45:04;101621.37;;;18.27;90.01
22775;BME280;11554;51.106;3.684;2022-08-21T21:50:03;101620.06;;;18.26;90.79
22775;BME280;11554;51.106;3.684;2022-08-21T21:55:04;101617.62999999999;;;18.21;90.63
22775;BME280;11554;51.106;3.684;2022-08-21T22:00:00;101612.67;;;18.17;91.57
22775;BME280;11554;51.106;3.684;2022-08-21T22:05:01;101619.2;;;18.15;91.52
22775;BME280;11554;51.106;3.684;2022-08-21T22:10:04;101614.83;;;18.11;91.56
22775;BME280;11554;51.106;3.684;2022-08-21T22:15:00;101610.25;;;18.07;92.71
22775;BME280;11554;51.106;3.684;2022-08-21T22:20:02;101615.21;;;18.04;92.57
22775;BME280;11554;51.106;3.684;2022-08-21T22:25:03;101612.47;;;18.01;91.95
22775;BME280;11554;51.106;3.684;2022-08-21T22:30:01;101606.95;;;18.00;92.1
22775;BME280;11554;51.106;3.684;2022-08-21T22:35:02;101605.38;;;17.97;90.56
22775;BME280;11554;51.106;3.684;2022-08-21T22:40:00;101605.58;;;17.98;92.72
22775;BME280;11554;51.106;3.684;2022-08-21T22:45:01;101598.1;;;17.95;93.61
22775;BME280;11554;51.106;3.684;2022-08-21T22:50:00;101597.70999999999;;;17.88;93.37
22775;BME280;11554;51.106;3.684;2022-08-21T22:55:01;101610.17;;;17.84;94.1
22775;BME280;11554;51.106;3.684;2022-08-21T23:00:00;101611.87;;;17.85;93.24
22775;BME280;11554;51.106;3.684;2022-08-21T23:05:01;101593.40999999999;;;17.94;94.03
22775;BME280;11554;51.106;3.684;2022-08-21T23:10:00;101592.39;;;17.88;94.47
22775;BME280;11554;51.106;3.684;2022-08-21T23:15:01;101594.0;;;17.84;93.87
22775;BME280;11554;51.106;3.684;2022-08-21T23:20:03;101594.14;;;17.78;93.27
22775;BME280;11554;51.106;3.684;2022-08-21T23:25:03;101599.78;;;17.76;93.48
22775;BME280;11554;51.106;3.684;2022-08-21T23:30:01;101605.55;;;17.63;90.81
22775;BME280;11554;51.106;3.684;2022-08-21T23:35:02;101608.34;;;17.64;92.75
22775;BME280;11554;51.106;3.684;2022-08-21T23:40:03;101607.5;;;17.65;92.39
22775;BME280;11554;51.106;3.684;2022-08-21T23:45:02;101604.47;;;17.67;94.4
22775;BME280;11554;51.106;3.684;2022-08-21T23:50:02;101605.04;;;17.64;94.46
22775;BME280;11554;51.106;3.684;2022-08-21T23:55:05;101602.0;;;17.58;93.51
